createdAt,value
2019-01-18T00:04:26.849Z,3.60
2019-01-18T00:09:31.539Z,5.03
2019-01-18T00:14:36.163Z,3.97
2019-01-18T00:19:40.735Z,4.83
2019-01-18T00:25:09.283Z,3.97
2019-01-18T00:30:14.017Z,3.70
2019-01-18T00:35:18.568Z,4.07
2019-01-18T00:40:23.791Z,3.57
2019-01-18T00:45:28.469Z,3.90
2019-01-18T00:50:33.050Z,3.73
2019-01-18T00:55:37.751Z,3.53
2019-01-18T01:00:42.459Z,3.53
2019-01-18T01:05:47.183Z,3.17
2019-01-18T01:10:51.808Z,3.10
2019-01-18T01:15:56.618Z,2.80
2019-01-18T01:21:05.231Z,2.57
2019-01-18T01:26:09.903Z,2.70
2019-01-18T01:31:14.716Z,2.63
2019-01-18T01:36:19.391Z,2.20
2019-01-18T01:41:24.027Z,3.73
2019-01-18T01:46:28.671Z,3.17
2019-01-18T01:51:33.259Z,2.90
2019-01-18T01:56:38.130Z,2.93
2019-01-18T02:01:42.736Z,3.20
2019-01-18T02:06:47.224Z,3.53
2019-01-18T02:11:51.909Z,4.00
2019-01-18T02:16:56.638Z,2.70
2019-01-18T02:22:02.388Z,2.73
2019-01-18T02:27:07.230Z,2.63
2019-01-18T02:32:11.847Z,2.67
2019-01-18T02:37:16.467Z,2.90
2019-01-18T02:42:21.106Z,2.83
2019-01-18T02:47:25.807Z,2.40
2019-01-18T02:52:30.383Z,2.77
2019-01-18T02:57:35.335Z,3.83
2019-01-18T03:02:39.947Z,2.90
2019-01-18T03:07:44.610Z,3.40
2019-01-18T03:12:49.222Z,3.13
2019-01-18T03:17:53.930Z,3.83
2019-01-18T03:22:58.463Z,3.60
2019-01-18T03:28:03.090Z,3.87
2019-01-18T03:33:09.017Z,3.93
2019-01-18T03:38:13.653Z,3.80
2019-01-18T03:43:24.656Z,3.47
2019-01-18T03:48:29.260Z,2.93
2019-01-18T03:53:33.984Z,3.30
2019-01-18T03:58:38.511Z,2.47
2019-01-18T04:03:43.195Z,2.63
2019-01-18T04:08:47.656Z,2.07
2019-01-18T04:13:52.425Z,2.07
2019-01-18T04:18:57.036Z,2.20
2019-01-18T04:24:01.551Z,3.40
2019-01-18T04:29:06.291Z,5.77
2019-01-18T04:34:10.775Z,3.47
2019-01-18T04:39:18.616Z,5.40
2019-01-18T04:44:23.141Z,4.37
2019-01-18T04:49:27.775Z,4.93
2019-01-18T04:54:32.411Z,3.97
2019-01-18T04:59:36.976Z,3.37
2019-01-18T05:04:41.682Z,3.90
2019-01-18T05:09:46.248Z,3.70
2019-01-18T05:14:50.786Z,4.70
2019-01-18T05:19:55.368Z,5.40
2019-01-18T05:25:00.096Z,5.67
2019-01-18T05:30:06.927Z,6.13
2019-01-18T05:35:11.683Z,6.43
2019-01-18T05:40:17.199Z,5.13
2019-01-18T05:45:22.236Z,7.40
2019-01-18T05:50:30.771Z,7.67
2019-01-18T05:55:35.540Z,5.13
2019-01-18T06:00:43.582Z,4.80
2019-01-18T06:05:48.486Z,4.53
2019-01-18T06:10:53.154Z,4.60
2019-01-18T06:15:57.807Z,4.30
2019-01-18T06:21:02.422Z,4.60
2019-01-18T06:26:07.270Z,5.77
2019-01-18T06:31:12.133Z,5.80
2019-01-18T06:36:19.998Z,6.83
2019-01-18T06:41:40.679Z,7.97
2019-01-18T06:46:45.110Z,8.57
2019-01-18T06:51:49.806Z,10.10
2019-01-18T06:56:54.280Z,6.63
2019-01-18T07:01:59.206Z,10.83
2019-01-18T07:07:03.882Z,9.73
2019-01-18T07:12:08.701Z,11.30
2019-01-18T07:17:13.210Z,10.07
2019-01-18T07:22:17.874Z,10.07
2019-01-18T07:27:22.329Z,10.10
2019-01-18T07:32:26.770Z,10.43
2019-01-18T07:37:31.308Z,10.77
2019-01-18T07:42:36.071Z,11.33
2019-01-18T07:47:40.874Z,10.97
2019-01-18T07:52:45.515Z,8.50
2019-01-18T07:57:50.017Z,13.07
2019-01-18T08:02:54.885Z,7.70
2019-01-18T08:07:59.599Z,9.03
2019-01-18T08:13:04.270Z,13.33
2019-01-18T08:18:08.990Z,13.40
2019-01-18T08:23:13.671Z,17.20
2019-01-18T08:28:18.212Z,18.30
2019-01-18T08:33:22.711Z,17.37
2019-01-18T08:38:27.453Z,16.67
2019-01-18T08:43:31.971Z,20.20
2019-01-18T08:48:36.574Z,13.33
2019-01-18T08:53:41.146Z,13.87
2019-01-18T08:58:45.614Z,16.10
2019-01-18T09:03:50.130Z,14.83
2019-01-18T09:08:54.770Z,15.33
2019-01-18T09:14:00.489Z,15.30
2019-01-18T09:19:05.118Z,15.33
2019-01-18T09:24:09.840Z,16.30
2019-01-18T09:29:14.294Z,17.07
2019-01-18T09:34:18.794Z,17.73
2019-01-18T09:39:23.270Z,17.27
2019-01-18T09:44:28.116Z,18.00
2019-01-18T09:49:38.677Z,17.43
2019-01-18T09:54:43.292Z,21.20
2019-01-18T09:59:47.863Z,21.20
2019-01-18T10:04:52.459Z,22.60
2019-01-18T10:09:57.074Z,19.43
2019-01-18T10:15:01.596Z,25.37
2019-01-18T10:20:07.590Z,20.53
2019-01-18T10:25:13.262Z,21.53
2019-01-18T10:30:20.522Z,21.70
2019-01-18T10:35:27.222Z,21.90
2019-01-18T10:40:37.667Z,22.43
2019-01-18T10:45:42.637Z,19.13
2019-01-18T10:50:47.206Z,21.03
2019-01-18T10:55:51.742Z,19.03
2019-01-18T11:00:56.379Z,18.27
2019-01-18T11:06:01.035Z,17.37
2019-01-18T11:11:05.654Z,17.70
2019-01-18T11:16:10.331Z,17.27
2019-01-18T11:21:18.108Z,19.00
2019-01-18T11:26:22.979Z,17.07
2019-01-18T11:31:27.462Z,18.50
2019-01-18T11:36:32.268Z,17.10
2019-01-18T11:41:36.910Z,18.73
2019-01-18T11:46:41.434Z,21.93
2019-01-18T11:51:45.971Z,17.87
2019-01-18T11:56:52.007Z,18.23
2019-01-18T12:01:56.696Z,18.80
2019-01-18T12:07:01.323Z,17.27
2019-01-18T12:12:05.822Z,18.80
2019-01-18T12:17:10.343Z,17.90
2019-01-18T12:22:15.131Z,19.40
2019-01-18T12:27:19.718Z,20.20
2019-01-18T12:32:28.749Z,18.70
2019-01-18T12:37:30.535Z,18.90
2019-01-18T12:42:35.343Z,19.40
2019-01-18T12:47:40.186Z,19.53
2019-01-18T12:52:48.063Z,20.10
2019-01-18T12:57:52.713Z,19.83
2019-01-18T13:02:57.792Z,18.93
2019-01-18T13:08:02.314Z,17.57
2019-01-18T13:13:06.998Z,16.83
2019-01-18T13:18:11.937Z,16.63
2019-01-18T13:23:16.593Z,15.10
2019-01-18T13:28:21.399Z,14.63
2019-01-18T13:33:26.015Z,13.47
2019-01-18T13:38:30.779Z,14.70
2019-01-18T13:43:35.409Z,15.17
2019-01-18T13:48:40.059Z,14.07
2019-01-18T13:53:44.744Z,15.03
2019-01-18T13:58:49.301Z,14.63
2019-01-18T14:03:54.234Z,15.20
2019-01-18T14:08:59.049Z,15.13
2019-01-18T14:14:03.655Z,16.57
2019-01-18T14:19:08.158Z,17.47
2019-01-18T14:24:12.702Z,18.40
2019-01-18T14:29:17.536Z,19.07
2019-01-18T14:34:22.059Z,18.17
2019-01-18T14:39:26.587Z,18.37
2019-01-18T14:44:31.426Z,19.63
2019-01-18T14:49:35.918Z,19.87
2019-01-18T14:54:40.379Z,18.17
2019-01-18T14:59:44.902Z,17.40
2019-01-18T15:04:49.650Z,18.83
2019-01-18T15:09:57.589Z,18.17
2019-01-18T15:15:00.856Z,15.47
2019-01-18T15:20:07.914Z,18.40
2019-01-18T15:25:12.580Z,18.17
2019-01-18T15:30:22.415Z,18.87
2019-01-18T15:35:35.230Z,19.27
2019-01-18T15:40:43.831Z,18.37
2019-01-18T15:45:48.379Z,18.87
2019-01-18T15:50:52.995Z,18.07
2019-01-18T15:55:57.675Z,17.67
2019-01-18T16:01:02.084Z,14.33
2019-01-18T16:06:06.843Z,15.97
2019-01-18T16:11:11.487Z,13.00
2019-01-18T16:16:29.501Z,20.13
2019-01-18T16:21:34.221Z,20.73
2019-01-18T16:26:40.875Z,21.50
2019-01-18T16:31:48.649Z,21.47
2019-01-18T16:36:53.234Z,21.87
2019-01-18T16:41:58.129Z,19.03
2019-01-18T16:47:02.802Z,19.73
2019-01-18T16:52:07.403Z,17.77
2019-01-18T16:57:12.046Z,14.23
2019-01-18T17:02:16.753Z,15.53
2019-01-18T17:07:21.478Z,12.67
2019-01-18T17:12:26.131Z,13.17
2019-01-18T17:17:30.702Z,11.00
2019-01-18T17:22:35.434Z,15.27
2019-01-18T17:27:43.202Z,16.47
2019-01-18T17:32:48.178Z,15.83
2019-01-18T17:37:56.902Z,16.83
2019-01-18T17:43:43.091Z,12.87
2019-01-18T17:49:17.751Z,15.23
2019-01-18T17:54:37.810Z,15.23
2019-01-18T18:00:38.616Z,14.13
2019-01-18T18:06:07.443Z,13.60
2019-01-18T18:11:36.485Z,14.97
2019-01-18T18:17:33.577Z,12.80
2019-01-18T18:23:15.348Z,17.67
2019-01-18T18:29:13.432Z,15.83
2019-01-18T18:34:52.264Z,12.33
2019-01-18T18:40:35.083Z,16.40
2019-01-18T18:46:41.490Z,14.43
2019-01-18T18:52:34.902Z,12.33
2019-01-18T18:58:28.998Z,15.63
2019-01-18T19:04:03.666Z,15.53
2019-01-18T19:10:04.577Z,14.60
2019-01-18T19:16:07.139Z,13.50
2019-01-18T19:21:51.910Z,13.93
2019-01-18T19:27:18.318Z,13.23
2019-01-18T19:33:03.782Z,11.13
2019-01-18T19:38:54.511Z,12.03
2019-01-18T19:44:31.842Z,12.47
2019-01-18T19:49:52.103Z,11.03
2019-01-18T19:55:31.371Z,13.47
2019-01-18T20:01:02.391Z,12.50
2019-01-18T20:06:57.407Z,9.20
2019-01-18T20:12:19.807Z,10.57
2019-01-18T20:17:49.237Z,9.07
2019-01-18T20:23:29.698Z,10.77
2019-01-18T20:28:59.918Z,11.40
2019-01-18T20:34:35.763Z,11.30
2019-01-18T20:40:37.051Z,10.57
2019-01-18T20:45:56.701Z,11.60
2019-01-18T20:51:41.112Z,9.40
2019-01-18T20:57:38.910Z,11.30
2019-01-18T21:03:15.863Z,11.97
2019-01-18T21:09:08.820Z,10.70
2019-01-18T21:14:41.879Z,10.90
2019-01-18T21:20:55.204Z,10.70
2019-01-18T21:26:18.843Z,9.27
2019-01-18T21:31:51.662Z,11.00
2019-01-18T21:37:31.757Z,9.70
2019-01-18T21:43:29.596Z,9.70
2019-01-18T21:49:00.403Z,10.57
2019-01-18T21:54:40.007Z,11.07
2019-01-18T22:00:19.111Z,10.17
2019-01-18T22:05:55.793Z,10.87
2019-01-18T22:11:25.791Z,11.47
2019-01-18T22:17:08.466Z,12.77
2019-01-18T22:22:39.406Z,11.93
2019-01-18T22:28:28.421Z,9.33
2019-01-18T22:33:44.637Z,11.33
2019-01-18T22:39:42.819Z,9.83
2019-01-18T22:45:14.226Z,9.43
2019-01-18T22:51:17.775Z,12.13
2019-01-18T22:56:58.366Z,10.87
2019-01-18T23:02:17.523Z,9.90
2019-01-18T23:08:14.974Z,11.37
2019-01-18T23:13:34.986Z,10.10
2019-01-18T23:18:49.911Z,12.20
2019-01-18T23:24:19.381Z,11.57
2019-01-18T23:29:37.712Z,8.67
2019-01-18T23:34:54.752Z,11.17
2019-01-18T23:40:17.178Z,10.57
2019-01-18T23:46:02.015Z,10.53
2019-01-18T23:51:29.539Z,10.57
2019-01-18T23:56:52.079Z,9.33
